Terminal Aerodrome Forecast
Issued by NWS

Home | Current Version | Previous Version | Text Only | Print | Product List | Glossary On
Versions: 1 2 3 4 5 6 7 8 9 10 11 12 13 14 15 16 17 18
000
FTUS43 KEAX 281700
TAFSTJ
TAF
KSTJ 281731Z 2818/2918 15012KT P6SM VCTS BKN035CB OVC130
      TEMPO 2819/2823 5SM -TSRA BKN035CB OVC130
     FM282330 17008KT P6SM SCT030 OVC190
     FM291700 22014KT P6SM VCTS BKN035CB OVC130=

USA.gov is the U.S. government's official web portal to all federal, state and local government web resources and services.